Terminal Aerodrome Forecast
Issued by NWS Grand Forks, ND

Home | Current Version | Previous Version | Graphics & Text | Print | Product List | Glossary On
Versions: 1 2 3 4 5 6 7 8 9 10 11 12 13 14 15 16 17 18 19
000
FTUS43 KFGF 191200 AAA
TAFFAR
TAF AMD
KFAR 191250Z 1913/2012 33011KT P6SM -RA OVC035
      TEMPO 1913/1916 3SM -RA BR BKN005
     FM191600 32019G28KT P6SM OVC040
     FM200200 32015KT P6SM BKN050=

USA.gov is the U.S. government's official web portal to all federal, state and local government web resources and services.